This is the latest recevied weather packets stored in our database for station/object ENRA. If no packets are shown the sender has not sent any weather packets the latest 10 day(s).
| Time | Temp. | Humidity | Pressure | Rain* | Wind** | Luminosity | Snow |
|---|---|---|---|---|---|---|---|
| 1788357786 | 15.56° C | 51% | 1002 hPa | - | - | - | - |
| 1788355989 | 16.67° C | 48% | 1002 hPa | - | - | - | - |
| 1788354187 | 15.56° C | 55% | 1002 hPa | - | - | - | - |
| 1788352387 | 17.78° C | 45% | 1002 hPa | - | - | - | - |
| 1788350586 | 15.56° C | 51% | 1002 hPa | - | - | - | - |
| 1788348787 | 15.56° C | 51% | 1003 hPa | - | - | - | - |
| 1788346989 | 15° C | 54% | 1003 hPa | - | - | - | - |
| 1788345187 | 13.89° C | 62% | 1003 hPa | - | - | - | - |
| 1788343388 | 13.89° C | 62% | 1003 hPa | - | - | - | - |
| 1788341588 | 11.67° C | 71% | 1003 hPa | - | - | - | - |
| 1788339787 | 11.67° C | 71% | 1003 hPa | - | - | - | - |
| 1788337987 | 8.89° C | 87% | 1004 hPa | - | - | - | - |
| 1788336188 | 8.89° C | 87% | 1004 hPa | - | - | - | - |
| 1788334388 | 7.78° C | 93% | 1004 hPa | - | - | - | - |
| 1788332588 | 7.78° C | 93% | 1004 hPa | - | - | - | - |
| 1788328988 | 6.67° C | 93% | 1004 hPa | - | - | - | - |
| 1788327187 | 6.67° C | 93% | 1004 hPa | - | - | - | - |
| 1788325387 | 3.89° C | 10% | - | - | - | - | - |
| 1788323587 | 3.89° C | 10% | - | - | - | - | - |
| 1788321787 | 3.89° C | 10% | - | - | - | - | - |
| 1788319987 | 5° C | 93% | 1005 hPa | - | - | - | - |
| 1788318187 | 5° C | 93% | 1005 hPa | - | - | - | - |
| 1788316387 | 3.89° C | 10% | - | - | - | - | - |
| 1788314587 | 5° C | 93% | 1006 hPa | - | - | - | - |
| 1788312787 | 5° C | 10% | - | - | - | - | - |
* Rain since midnight (hover to see other rain measurements)
** Current wind speed in m/s (hover to see current wind gust speed)